createdAt,value
2018-12-31T00:01:09.539Z,98241.33
2018-12-31T00:03:36.782Z,98248.73
2018-12-31T00:06:05.629Z,98248.58
2018-12-31T00:08:32.240Z,98245.20
2018-12-31T00:10:58.790Z,98243.38
2018-12-31T00:13:29.175Z,98245.49
2018-12-31T00:15:55.743Z,98249.14
2018-12-31T00:18:22.334Z,98240.08
2018-12-31T00:20:48.863Z,98249.19
2018-12-31T00:23:17.364Z,98251.59
2018-12-31T00:25:44.038Z,98255.19
2018-12-31T00:28:13.122Z,98264.27
2018-12-31T00:30:39.697Z,98267.42
2018-12-31T00:33:08.399Z,98269.09
2018-12-31T00:35:37.533Z,98265.00
2018-12-31T00:38:04.224Z,98270.83
2018-12-31T00:40:30.772Z,98269.09
2018-12-31T00:42:59.166Z,98275.44
2018-12-31T00:45:25.894Z,98276.37
2018-12-31T00:47:54.857Z,98274.29
2018-12-31T00:50:21.597Z,98287.50
2018-12-31T00:52:49.057Z,98280.18
2018-12-31T00:55:15.853Z,98279.43
2018-12-31T00:57:42.620Z,98290.12
2018-12-31T01:00:12.437Z,98286.00
2018-12-31T01:02:40.105Z,98283.19
2018-12-31T01:05:06.788Z,98285.25
2018-12-31T01:07:35.861Z,98283.01
2018-12-31T01:10:02.470Z,98287.63
2018-12-31T01:12:29.166Z,98292.65
2018-12-31T01:14:58.376Z,98296.67
2018-12-31T01:17:24.978Z,98291.55
2018-12-31T01:19:52.035Z,98300.98
2018-12-31T01:22:18.676Z,98298.74
2018-12-31T01:24:46.183Z,98285.06
2018-12-31T01:27:15.237Z,98285.87
2018-12-31T01:29:41.798Z,98294.95
2018-12-31T01:34:44.036Z,98283.43
2018-12-31T01:37:10.758Z,98283.30
2018-12-31T01:39:37.433Z,98289.98
2018-12-31T01:42:03.996Z,98304.73
2018-12-31T01:44:30.658Z,98293.86
2018-12-31T01:46:57.339Z,98294.11
2018-12-31T01:49:23.899Z,98297.98
2018-12-31T01:51:50.507Z,98297.11
2018-12-31T01:54:17.152Z,98290.08
2018-12-31T01:56:43.902Z,98291.93
2018-12-31T01:59:10.640Z,98293.41
2018-12-31T02:01:37.153Z,98294.64
2018-12-31T02:04:03.777Z,98295.20
2018-12-31T02:06:30.470Z,98299.57
2018-12-31T02:08:56.975Z,98293.50
2018-12-31T02:11:26.916Z,98302.03
2018-12-31T02:13:53.682Z,98293.18
2018-12-31T02:16:20.557Z,98289.89
2018-12-31T02:18:47.254Z,98291.34
2018-12-31T02:21:19.896Z,98284.95
2018-12-31T02:23:46.519Z,98288.92
2018-12-31T02:26:13.749Z,98293.11
2018-12-31T02:28:40.997Z,98293.05
2018-12-31T02:31:07.878Z,98295.57
2018-12-31T02:33:34.449Z,98290.09
2018-12-31T02:36:01.094Z,98287.51
2018-12-31T02:38:27.709Z,98301.60
2018-12-31T02:40:54.358Z,98301.51
2018-12-31T02:43:21.008Z,98299.51
2018-12-31T02:45:47.604Z,98308.17
2018-12-31T02:48:14.138Z,98301.12
2018-12-31T02:50:41.265Z,98289.15
2018-12-31T02:53:07.900Z,98295.84
2018-12-31T02:55:34.488Z,98308.55
2018-12-31T02:58:01.112Z,98290.59
2018-12-31T03:00:27.642Z,98296.01
2018-12-31T03:02:54.272Z,98291.98
2018-12-31T03:05:20.916Z,98288.95
2018-12-31T03:07:47.431Z,98276.97
2018-12-31T03:10:14.056Z,98286.69
2018-12-31T03:12:41.741Z,98285.84
2018-12-31T03:15:08.291Z,98290.27
2018-12-31T03:17:34.826Z,98282.02
2018-12-31T03:20:01.360Z,98287.38
2018-12-31T03:22:27.968Z,98275.91
2018-12-31T03:24:54.600Z,98274.10
2018-12-31T03:27:21.187Z,98278.61
2018-12-31T03:29:47.743Z,98276.35
2018-12-31T03:32:18.563Z,98269.92
2018-12-31T03:34:45.143Z,98271.55
2018-12-31T03:37:12.242Z,98260.67
2018-12-31T03:39:38.786Z,98261.59
2018-12-31T03:42:08.399Z,98268.06
2018-12-31T03:44:35.112Z,98260.77
2018-12-31T03:47:01.635Z,98261.30
2018-12-31T03:49:28.231Z,98260.31
2018-12-31T03:51:57.558Z,98270.09
2018-12-31T03:54:24.096Z,98265.23
2018-12-31T03:56:50.725Z,98264.53
2018-12-31T03:59:17.295Z,98274.38
2018-12-31T04:01:43.877Z,98275.91
2018-12-31T04:04:10.437Z,98278.58
2018-12-31T04:06:37.873Z,98283.03
2018-12-31T04:09:04.435Z,98281.13
2018-12-31T04:11:31.093Z,98284.68
2018-12-31T04:13:57.628Z,98293.11
2018-12-31T04:16:24.227Z,98291.13
2018-12-31T04:18:50.817Z,98288.70
2018-12-31T04:23:47.983Z,98291.02
2018-12-31T04:26:14.567Z,98301.48
2018-12-31T04:28:42.171Z,98303.59
2018-12-31T04:31:08.670Z,98309.53
2018-12-31T04:33:35.355Z,98295.02
2018-12-31T04:36:01.970Z,98303.80
2018-12-31T04:38:28.699Z,98316.14
2018-12-31T04:40:55.335Z,98311.84
2018-12-31T04:43:21.892Z,98304.77
2018-12-31T04:45:48.457Z,98303.38
2018-12-31T04:48:15.162Z,98309.29
2018-12-31T04:50:42.349Z,98313.81
2018-12-31T04:53:09.222Z,98327.69
2018-12-31T04:55:44.047Z,98326.03
2018-12-31T04:58:04.681Z,98318.47
2018-12-31T05:00:31.225Z,98319.80
2018-12-31T05:02:58.220Z,98324.24
2018-12-31T05:05:24.746Z,98318.20
2018-12-31T05:07:51.283Z,98315.55
2018-12-31T05:10:17.857Z,98331.98
2018-12-31T05:12:48.312Z,98318.95
2018-12-31T05:15:14.851Z,98331.12
2018-12-31T05:17:41.556Z,98335.08
2018-12-31T05:20:08.090Z,98351.39
2018-12-31T05:22:38.370Z,98361.70
2018-12-31T05:25:05.200Z,98349.30
2018-12-31T05:27:31.915Z,98358.70
2018-12-31T05:29:58.536Z,98352.84
2018-12-31T05:32:25.196Z,98357.42
2018-12-31T05:34:52.180Z,98357.99
2018-12-31T05:37:19.752Z,98369.69
2018-12-31T05:39:46.365Z,98375.61
2018-12-31T05:42:13.012Z,98371.31
2018-12-31T05:44:39.584Z,98372.73
2018-12-31T05:47:07.019Z,98370.45
2018-12-31T05:49:33.839Z,98372.06
2018-12-31T05:52:00.810Z,98378.83
2018-12-31T05:54:27.515Z,98387.91
2018-12-31T05:56:54.081Z,98388.43
2018-12-31T05:59:20.696Z,98397.16
2018-12-31T06:01:47.353Z,98389.58
2018-12-31T06:04:14.202Z,98399.94
2018-12-31T06:06:40.741Z,98397.00
2018-12-31T06:09:07.324Z,98400.12
2018-12-31T06:11:33.919Z,98415.98
2018-12-31T06:14:01.239Z,98415.19
2018-12-31T06:16:28.622Z,98419.17
2018-12-31T06:18:55.973Z,98413.16
2018-12-31T06:21:23.418Z,98423.48
2018-12-31T06:23:50.029Z,98428.58
2018-12-31T06:26:16.599Z,98426.73
2018-12-31T06:28:43.523Z,98426.91
2018-12-31T06:31:10.138Z,98423.69
2018-12-31T06:33:38.612Z,98431.73
2018-12-31T06:36:05.144Z,98431.05
2018-12-31T06:38:31.752Z,98440.98
2018-12-31T06:40:58.317Z,98454.07
2018-12-31T06:43:27.997Z,98443.91
2018-12-31T06:45:54.854Z,98445.73
2018-12-31T06:48:21.442Z,98452.30
2018-12-31T06:50:50.674Z,98458.86
2018-12-31T06:53:17.233Z,98453.34
2018-12-31T06:55:43.903Z,98457.66
2018-12-31T06:58:10.547Z,98460.84
2018-12-31T07:00:37.147Z,98457.73
2018-12-31T07:03:04.694Z,98453.11
2018-12-31T07:05:31.455Z,98462.94
2018-12-31T07:07:58.054Z,98468.63
2018-12-31T07:10:24.632Z,98462.69
2018-12-31T07:12:51.692Z,98466.34
2018-12-31T07:15:18.278Z,98463.15
2018-12-31T07:17:45.035Z,98472.46
2018-12-31T07:20:12.008Z,98470.42
2018-12-31T07:22:38.639Z,98465.14
2018-12-31T07:25:05.178Z,98475.74
2018-12-31T07:27:31.944Z,98474.46
2018-12-31T07:32:45.325Z,98479.42
2018-12-31T07:35:11.919Z,98475.06
2018-12-31T07:37:38.448Z,98485.36
2018-12-31T07:40:05.031Z,98486.28
2018-12-31T07:42:31.619Z,98488.19
2018-12-31T07:45:01.997Z,98491.02
2018-12-31T07:47:28.598Z,98491.22
2018-12-31T07:49:55.236Z,98490.48
2018-12-31T07:52:21.802Z,98492.32
2018-12-31T07:54:48.803Z,98490.60
2018-12-31T07:57:15.429Z,98495.73
2018-12-31T07:59:42.134Z,98484.78
2018-12-31T08:02:09.447Z,98494.41
2018-12-31T08:04:36.088Z,98495.93
2018-12-31T08:07:02.601Z,98489.38
2018-12-31T08:09:29.181Z,98492.58
2018-12-31T08:11:55.735Z,98490.69
2018-12-31T08:14:23.759Z,98496.61
2018-12-31T08:16:50.390Z,98493.31
2018-12-31T08:19:17.679Z,98496.20
2018-12-31T08:21:44.555Z,98494.53
2018-12-31T08:24:13.739Z,98492.31
2018-12-31T08:26:41.349Z,98493.44
2018-12-31T08:29:07.903Z,98497.05
2018-12-31T08:31:34.598Z,98508.62
2018-12-31T08:34:01.639Z,98503.34
2018-12-31T08:36:28.153Z,98508.43
2018-12-31T08:38:54.672Z,98503.80
2018-12-31T08:41:21.328Z,98502.88
2018-12-31T08:43:48.057Z,98501.49
2018-12-31T08:46:14.751Z,98504.30
2018-12-31T08:48:41.349Z,98504.63
2018-12-31T08:51:08.044Z,98504.02
2018-12-31T08:53:34.579Z,98506.20
2018-12-31T08:56:01.164Z,98519.36
2018-12-31T08:58:27.762Z,98521.30
2018-12-31T09:00:54.304Z,98519.91
2018-12-31T09:03:20.921Z,98522.86
2018-12-31T09:05:47.793Z,98533.20
2018-12-31T09:08:14.864Z,98535.52
2018-12-31T09:10:41.591Z,98529.13
2018-12-31T09:13:08.178Z,98533.08
2018-12-31T09:15:34.769Z,98540.60
2018-12-31T09:18:01.503Z,98534.09
2018-12-31T09:20:28.559Z,98541.34
2018-12-31T09:22:55.189Z,98534.22
2018-12-31T09:25:24.484Z,98532.56
2018-12-31T09:27:51.060Z,98529.66
2018-12-31T09:30:20.357Z,98526.77
2018-12-31T09:32:46.928Z,98516.57
2018-12-31T09:35:15.297Z,98514.02
2018-12-31T09:37:41.841Z,98514.42
2018-12-31T09:40:08.390Z,98515.11
2018-12-31T09:42:35.003Z,98505.86
2018-12-31T09:45:03.549Z,98500.94
2018-12-31T09:47:30.255Z,98496.11
2018-12-31T09:49:56.797Z,98493.27
2018-12-31T09:52:23.408Z,98503.17
2018-12-31T09:54:49.950Z,98503.91
2018-12-31T09:57:16.536Z,98501.55
2018-12-31T09:59:43.072Z,98497.25
2018-12-31T10:02:09.713Z,98495.70
2018-12-31T10:04:36.273Z,98497.16
2018-12-31T10:07:02.820Z,98491.31
2018-12-31T10:09:29.377Z,98485.38
2018-12-31T10:11:56.291Z,98485.56
2018-12-31T10:14:22.843Z,98479.70
2018-12-31T10:16:49.437Z,98471.33
2018-12-31T10:19:15.991Z,98477.11
2018-12-31T10:21:42.642Z,98471.36
2018-12-31T10:24:09.217Z,98480.08
2018-12-31T10:26:35.758Z,98476.73
2018-12-31T10:29:02.271Z,98468.80
2018-12-31T10:31:28.813Z,98469.63
2018-12-31T10:33:55.390Z,98477.73
2018-12-31T10:36:21.888Z,98471.63
2018-12-31T10:38:51.211Z,98471.44
2018-12-31T10:41:16.704Z,98460.52
2018-12-31T10:43:43.286Z,98465.33
2018-12-31T10:46:13.392Z,98450.91
2018-12-31T10:48:40.570Z,98450.25
2018-12-31T10:51:07.128Z,98443.16
2018-12-31T10:53:33.653Z,98453.81
2018-12-31T10:56:02.197Z,98455.42
2018-12-31T10:58:30.360Z,98445.13
2018-12-31T11:00:56.953Z,98441.85
2018-12-31T11:03:23.482Z,98435.22
2018-12-31T11:05:57.069Z,98431.18
2018-12-31T11:08:24.864Z,98430.00
2018-12-31T11:10:51.384Z,98420.44
2018-12-31T11:13:17.884Z,98425.56
2018-12-31T11:15:48.234Z,98418.69
2018-12-31T11:18:15.978Z,98413.56
2018-12-31T11:20:42.524Z,98417.52
2018-12-31T11:23:09.072Z,98410.70
2018-12-31T11:25:35.655Z,98414.16
2018-12-31T11:28:02.183Z,98414.83
2018-12-31T11:30:28.795Z,98403.31
2018-12-31T11:32:55.308Z,98399.67
2018-12-31T11:35:21.844Z,98404.31
2018-12-31T11:37:48.415Z,98401.07
2018-12-31T11:40:14.966Z,98402.64
2018-12-31T11:42:41.586Z,98400.48
2018-12-31T11:45:08.417Z,98393.81
2018-12-31T11:47:35.035Z,98391.32
2018-12-31T11:50:01.605Z,98389.90
2018-12-31T11:52:28.132Z,98385.63
2018-12-31T11:54:54.705Z,98376.08
2018-12-31T11:57:21.276Z,98380.44
2018-12-31T11:59:47.816Z,98385.30
2018-12-31T12:02:14.417Z,98385.98
2018-12-31T12:04:40.928Z,98376.83
2018-12-31T12:07:07.553Z,98375.63
2018-12-31T12:09:34.059Z,98374.83
2018-12-31T12:12:00.636Z,98374.31
2018-12-31T12:14:28.542Z,98370.25
2018-12-31T12:16:55.047Z,98368.05
2018-12-31T12:19:22.087Z,98370.32
2018-12-31T12:21:48.650Z,98371.94
2018-12-31T12:24:15.165Z,98367.09
2018-12-31T12:26:44.746Z,98370.92
2018-12-31T12:29:11.281Z,98368.37
2018-12-31T12:31:37.818Z,98376.02
2018-12-31T12:34:04.372Z,98375.23
2018-12-31T12:36:34.027Z,98380.32
2018-12-31T12:39:00.573Z,98379.81
2018-12-31T12:41:27.105Z,98384.31
2018-12-31T12:43:53.995Z,98382.66
2018-12-31T12:46:20.547Z,98385.98
2018-12-31T12:48:47.135Z,98386.68
2018-12-31T12:51:13.692Z,98382.64
2018-12-31T12:53:40.216Z,98382.84
2018-12-31T12:56:06.804Z,98380.43
2018-12-31T12:58:33.689Z,98379.65
2018-12-31T13:01:00.282Z,98378.53
2018-12-31T13:03:26.819Z,98374.16
2018-12-31T13:05:53.376Z,98380.36
2018-12-31T13:08:19.916Z,98381.00
2018-12-31T13:10:47.149Z,98381.30
2018-12-31T13:13:14.201Z,98380.26
2018-12-31T13:15:41.084Z,98382.81
2018-12-31T13:18:07.617Z,98373.41
2018-12-31T13:20:34.503Z,98379.89
2018-12-31T13:23:01.069Z,98383.28
2018-12-31T13:25:27.608Z,98390.84
2018-12-31T13:27:54.455Z,98390.59
2018-12-31T13:30:21.059Z,98394.55
2018-12-31T13:32:47.628Z,98399.83
2018-12-31T13:35:14.142Z,98395.17
2018-12-31T13:37:45.886Z,98400.60
2018-12-31T13:40:12.557Z,98404.08
2018-12-31T13:42:39.084Z,98407.18
2018-12-31T13:45:05.613Z,98409.84
2018-12-31T13:47:42.635Z,98416.85
2018-12-31T13:50:09.181Z,98423.38
2018-12-31T13:52:36.079Z,98434.67
2018-12-31T13:55:02.628Z,98443.38
2018-12-31T13:57:32.987Z,98451.85
2018-12-31T13:59:59.493Z,98450.48
2018-12-31T14:02:26.014Z,98445.13
2018-12-31T14:04:52.625Z,98447.98
2018-12-31T14:07:21.834Z,98445.53
2018-12-31T14:09:48.347Z,98450.84
2018-12-31T14:12:14.904Z,98457.15
2018-12-31T14:14:41.434Z,98462.09
2018-12-31T14:17:08.019Z,98462.18
2018-12-31T14:19:34.645Z,98471.33
2018-12-31T14:22:01.702Z,98471.92
2018-12-31T14:24:28.212Z,98465.95
2018-12-31T14:27:00.493Z,98473.58
2018-12-31T14:29:23.076Z,98483.38
2018-12-31T14:31:49.591Z,98483.42
2018-12-31T14:34:16.130Z,98485.48
2018-12-31T14:36:42.950Z,98485.15
2018-12-31T14:39:14.066Z,98478.58
2018-12-31T14:41:40.556Z,98481.22
2018-12-31T14:44:07.117Z,98489.11
2018-12-31T14:46:33.647Z,98488.31
2018-12-31T14:49:00.188Z,98497.88
2018-12-31T14:51:26.772Z,98497.30
2018-12-31T14:53:53.287Z,98494.27
2018-12-31T14:56:19.818Z,98500.88
2018-12-31T14:58:46.336Z,98503.70
2018-12-31T15:01:18.047Z,98505.81
2018-12-31T15:03:50.072Z,98506.13
2018-12-31T15:06:11.430Z,98503.92
2018-12-31T15:08:38.114Z,98505.81
2018-12-31T15:11:05.052Z,98506.80
2018-12-31T15:13:31.595Z,98507.88
2018-12-31T15:15:58.146Z,98511.89
2018-12-31T15:18:25.189Z,98524.16
2018-12-31T15:20:51.657Z,98517.23
2018-12-31T15:23:18.620Z,98522.52
2018-12-31T15:25:45.203Z,98529.77
2018-12-31T15:28:12.370Z,98534.14
2018-12-31T15:30:38.871Z,98526.12
2018-12-31T15:33:05.421Z,98529.77
2018-12-31T15:35:31.948Z,98534.48
2018-12-31T15:37:59.777Z,98537.09
2018-12-31T15:40:26.885Z,98539.25
2018-12-31T15:42:53.411Z,98542.64
2018-12-31T15:45:19.949Z,98544.58
2018-12-31T15:47:46.550Z,98549.67
2018-12-31T15:50:13.082Z,98556.08
2018-12-31T15:52:39.647Z,98553.08
2018-12-31T15:55:06.179Z,98549.78
2018-12-31T15:57:32.686Z,98558.39
2018-12-31T15:59:59.236Z,98562.24
2018-12-31T16:02:26.008Z,98563.78
2018-12-31T16:04:52.515Z,98567.23
2018-12-31T16:07:19.212Z,98565.03
2018-12-31T16:09:45.754Z,98564.98
2018-12-31T16:12:12.288Z,98571.34
2018-12-31T16:14:38.806Z,98570.66
2018-12-31T16:17:05.507Z,98571.86
2018-12-31T16:19:32.030Z,98579.23
2018-12-31T16:21:58.536Z,98579.59
2018-12-31T16:24:25.111Z,98581.98
2018-12-31T16:26:51.634Z,98593.06
2018-12-31T16:29:19.234Z,98588.00
2018-12-31T16:31:45.872Z,98591.06
2018-12-31T16:34:12.531Z,98590.85
2018-12-31T16:36:39.086Z,98593.88
2018-12-31T16:39:05.583Z,98595.94
2018-12-31T16:41:32.118Z,98591.36
2018-12-31T16:43:58.649Z,98595.53
2018-12-31T16:46:25.185Z,98602.03
2018-12-31T16:48:54.993Z,98600.46
2018-12-31T16:51:21.492Z,98598.25
2018-12-31T16:53:48.033Z,98605.34
2018-12-31T16:56:14.611Z,98613.02
2018-12-31T16:58:52.009Z,98617.96
2018-12-31T17:01:19.843Z,98615.47
2018-12-31T17:03:46.365Z,98624.75
2018-12-31T17:06:12.919Z,98614.65
2018-12-31T17:08:39.494Z,98617.42
2018-12-31T17:11:06.224Z,98613.89
2018-12-31T17:13:35.214Z,98610.46
2018-12-31T17:16:02.231Z,98614.49
2018-12-31T17:18:28.760Z,98616.45
2018-12-31T17:20:55.262Z,98617.87
2018-12-31T17:23:21.874Z,98617.40
2018-12-31T17:25:48.390Z,98614.17
2018-12-31T17:28:15.050Z,98613.88
2018-12-31T17:30:41.925Z,98619.93
2018-12-31T17:33:08.450Z,98624.41
2018-12-31T17:35:34.997Z,98624.27
2018-12-31T17:38:01.571Z,98636.55
2018-12-31T17:40:28.091Z,98629.59
2018-12-31T17:42:54.660Z,98630.77
2018-12-31T17:45:23.285Z,98632.44
2018-12-31T17:47:49.896Z,98636.23
2018-12-31T17:50:16.485Z,98636.17
2018-12-31T17:52:42.993Z,98641.80
2018-12-31T17:55:09.566Z,98640.77
2018-12-31T17:57:36.115Z,98634.93
2018-12-31T18:00:03.748Z,98633.12
2018-12-31T18:02:32.555Z,98635.11
2018-12-31T18:04:59.075Z,98635.78
2018-12-31T18:07:29.897Z,98639.63
2018-12-31T18:10:02.697Z,98636.55
2018-12-31T18:12:29.352Z,98634.93
2018-12-31T18:14:55.891Z,98639.59
2018-12-31T18:17:22.457Z,98638.98
2018-12-31T18:19:50.676Z,98641.05
2018-12-31T18:22:17.461Z,98643.94
2018-12-31T18:24:43.983Z,98647.45
2018-12-31T18:27:12.551Z,98650.73
2018-12-31T18:29:40.412Z,98656.09
2018-12-31T18:32:06.934Z,98665.02
2018-12-31T18:34:33.434Z,98666.69
2018-12-31T18:37:00.051Z,98669.52
2018-12-31T18:39:26.584Z,98669.91
2018-12-31T18:41:53.079Z,98671.37
2018-12-31T18:44:20.510Z,98670.46
2018-12-31T18:46:47.316Z,98673.58
2018-12-31T18:49:13.976Z,98678.86
2018-12-31T18:51:40.534Z,98679.56
2018-12-31T18:54:07.020Z,98684.67
2018-12-31T18:56:33.545Z,98698.19
2018-12-31T18:59:00.084Z,98691.84
2018-12-31T19:01:26.644Z,98698.33
2018-12-31T19:03:53.290Z,98693.50
2018-12-31T19:06:20.887Z,98697.91
2018-12-31T19:08:47.442Z,98699.69
2018-12-31T19:11:13.962Z,98706.59
2018-12-31T19:13:41.297Z,98707.20
2018-12-31T19:16:07.802Z,98702.45
2018-12-31T19:18:34.384Z,98707.49
2018-12-31T19:21:00.998Z,98703.74
2018-12-31T19:23:27.520Z,98701.27
2018-12-31T19:25:54.039Z,98711.53
2018-12-31T19:28:21.054Z,98715.55
2018-12-31T19:30:51.383Z,98705.70
2018-12-31T19:33:17.987Z,98708.02
2018-12-31T19:35:44.602Z,98713.56
2018-12-31T19:38:11.388Z,98711.52
2018-12-31T19:40:38.695Z,98710.09
2018-12-31T19:43:09.200Z,98717.48
2018-12-31T19:45:35.730Z,98711.06
2018-12-31T19:48:02.264Z,98712.23
2018-12-31T19:50:31.504Z,98714.99
2018-12-31T19:52:58.056Z,98711.70
2018-12-31T19:55:24.581Z,98713.84
2018-12-31T19:57:51.401Z,98715.27
2018-12-31T20:00:20.603Z,98716.39
2018-12-31T20:02:47.115Z,98720.80
2018-12-31T20:05:13.672Z,98727.81
2018-12-31T20:07:40.219Z,98728.91
2018-12-31T20:10:08.497Z,98725.58
2018-12-31T20:12:35.064Z,98729.52
2018-12-31T20:15:01.699Z,98728.32
2018-12-31T20:17:28.211Z,98730.06
2018-12-31T20:19:54.946Z,98730.44
2018-12-31T20:22:21.538Z,98734.48
2018-12-31T20:24:48.168Z,98732.50
2018-12-31T20:27:15.064Z,98727.55
2018-12-31T20:29:41.625Z,98731.77
2018-12-31T20:32:10.680Z,98743.46
2018-12-31T20:34:37.223Z,98751.44
2018-12-31T20:37:03.874Z,98750.68
2018-12-31T20:39:30.439Z,98753.63
2018-12-31T20:41:59.216Z,98751.66
2018-12-31T20:44:25.910Z,98745.06
2018-12-31T20:46:52.420Z,98745.27
2018-12-31T20:49:19.044Z,98751.76
2018-12-31T20:51:45.642Z,98754.27
2018-12-31T20:54:12.202Z,98752.74
2018-12-31T20:56:39.110Z,98753.18
2018-12-31T20:59:05.925Z,98756.78
2018-12-31T21:01:34.680Z,98759.08
2018-12-31T21:04:01.505Z,98758.86
2018-12-31T21:06:28.044Z,98762.03
2018-12-31T21:08:54.625Z,98764.89
2018-12-31T21:11:21.850Z,98767.08
2018-12-31T21:13:48.445Z,98762.73
2018-12-31T21:16:14.997Z,98767.41
2018-12-31T21:18:41.586Z,98764.84
2018-12-31T21:21:11.114Z,98770.56
2018-12-31T21:23:37.657Z,98769.81
2018-12-31T21:26:04.483Z,98772.16
2018-12-31T21:28:31.123Z,98773.59
2018-12-31T21:30:57.649Z,98775.28
2018-12-31T21:33:24.551Z,98779.03
2018-12-31T21:35:54.518Z,98775.48
2018-12-31T21:38:23.740Z,98778.17
2018-12-31T21:40:50.875Z,98771.39
2018-12-31T21:43:17.381Z,98771.39
2018-12-31T21:45:43.890Z,98773.70
2018-12-31T21:48:10.569Z,98778.94
2018-12-31T21:50:37.102Z,98776.70
2018-12-31T21:53:03.665Z,98772.58
2018-12-31T21:55:30.212Z,98783.45
2018-12-31T21:57:56.772Z,98784.88
2018-12-31T22:00:23.560Z,98782.27
2018-12-31T22:02:56.854Z,98783.89
2018-12-31T22:05:18.519Z,98785.63
2018-12-31T22:07:45.043Z,98785.08
2018-12-31T22:10:11.607Z,98785.37
2018-12-31T22:12:38.420Z,98785.47
2018-12-31T22:15:05.622Z,98784.52
2018-12-31T22:17:32.202Z,98788.13
2018-12-31T22:19:58.787Z,98786.45
2018-12-31T22:22:25.506Z,98790.88
2018-12-31T22:24:52.939Z,98789.92
2018-12-31T22:27:19.463Z,98792.61
2018-12-31T22:29:46.345Z,98797.56
2018-12-31T22:32:12.958Z,98801.17
2018-12-31T22:34:39.510Z,98794.45
2018-12-31T22:37:06.000Z,98797.97
2018-12-31T22:39:32.985Z,98794.89
2018-12-31T22:42:01.259Z,98794.53
2018-12-31T22:44:27.796Z,98800.59
2018-12-31T22:46:54.372Z,98795.08
2018-12-31T22:49:20.990Z,98793.09
2018-12-31T22:51:50.691Z,98794.27
2018-12-31T22:54:17.268Z,98798.98
2018-12-31T22:56:45.043Z,98795.81
2018-12-31T22:59:12.206Z,98799.59
2018-12-31T23:01:38.964Z,98800.85
2018-12-31T23:04:05.561Z,98793.27
2018-12-31T23:06:32.141Z,98796.88
2018-12-31T23:08:58.692Z,98801.85
2018-12-31T23:11:25.226Z,98804.45
2018-12-31T23:13:52.192Z,98799.10
2018-12-31T23:16:18.885Z,98804.89
2018-12-31T23:18:45.412Z,98807.77
2018-12-31T23:21:11.969Z,98806.24
2018-12-31T23:23:38.622Z,98807.18
2018-12-31T23:26:05.234Z,98806.70
2018-12-31T23:28:31.775Z,98805.13
2018-12-31T23:30:58.319Z,98802.20
2018-12-31T23:33:24.816Z,98805.05
2018-12-31T23:35:51.345Z,98797.65
2018-12-31T23:38:18.285Z,98800.08
2018-12-31T23:40:44.924Z,98801.61
2018-12-31T23:43:11.575Z,98792.98
2018-12-31T23:45:38.550Z,98800.34
2018-12-31T23:48:05.149Z,98793.95
2018-12-31T23:50:31.767Z,98796.02
2018-12-31T23:55:45.498Z,98801.61
2018-12-31T23:58:12.058Z,98800.11
